Latest Weather Observations for Karratha

IDW60801

Issued at 6:32 am WST Monday 20 April 2015 (issued every 30 minutes, with the page automatically refreshed every 10 minutes)

About weather observations | Map of weather stations | Latest weather observations for WA | Other Formats
Station Details ID: 004083 Name: KARRATHA AERO Lat: -20.71 Lon: 116.77 Height: 5.3 m
Data from the previous 72 hours. | See also: Recent months at Karratha
Date/Time
WST
Temp
°C
App
Temp
°C
Dew
Point
Rel
Hum
%
Delta-T
°C
Wind Press
QNH
hPa
Press
MSL
hPa
Rain
since 9 am
mm
Dir
 
Spd
km/h
Gust
km/h
Spd
kts
Gust
kts
20/06:30am 18.7 14.9 18.2 97 0.3 E 35 46 19 25 1014.9 1014.9 9.6
20/06:00am 18.6 15.8 18.3 98 0.2 ESE 30 37 16 20 1015.0 1015.0 9.6
20/05:30am 18.7 16.0 18.4 98 0.2 ESE 30 39 16 21 1015.2 1015.2 9.4
20/05:00am 18.7 15.6 18.4 98 0.2 ESE 32 41 17 22 1015.1 1015.1 9.4
20/04:30am 18.7 15.4 18.4 98 0.2 ESE 33 44 18 24 1014.6 1014.6 9.4
20/04:00am 18.8 15.6 18.6 99 0.1 ESE 33 41 18 22 1014.7 1014.7 9.2
20/03:30am 18.9 15.7 18.6 98 0.2 ESE 33 41 18 22 1015.4 1015.4 8.8
20/03:00am 19.1 16.2 18.8 98 0.2 E 32 39 17 21 1015.8 1015.8 8.6
20/02:30am 19.3 16.5 19.0 98 0.2 E 32 39 17 21 1016.0 1016.0 8.2
20/02:00am 19.1 16.6 18.9 99 0.1 E 30 35 16 19 1015.9 1015.9 8.0
20/01:30am 19.1 16.2 18.9 99 0.1 E 32 39 17 21 1015.9 1015.9 7.2
20/01:00am 19.0 15.9 18.8 99 0.1 E 33 43 18 23 1015.7 1015.7 7.0
20/12:30am 19.1 15.2 18.8 98 0.2 E 37 46 20 25 1016.0 1016.0 6.4
20/12:00am 19.7 16.5 19.5 99 0.1 E 35 44 19 24 1016.0 1016.0 6.0
 
Date/Time
WST
Temp
°C
App
Temp
°C
Dew
Point
Rel
Hum
%
Delta-T
°C
Wind Press
QNH
hPa
Press
MSL
hPa
Rain
since 9 am
mm
Dir
 
Spd
km/h
Gust
km/h
Spd
kts
Gust
kts
19/11:30pm 19.8 15.9 19.6 99 0.1 ESE 39 48 21 26 1015.3 1015.3 5.6
19/11:00pm 20.1 15.3 19.6 97 0.3 ESE 44 54 24 29 1015.1 1015.1 5.4
19/10:30pm 20.2 17.0 19.4 95 0.5 ESE 35 50 19 27 1015.2 1015.2 5.4
19/10:00pm 20.5 17.6 19.2 92 0.8 ESE 33 44 18 24 1015.7 1015.7 5.4
19/09:30pm 20.4 16.7 19.2 93 0.8 ESE 37 52 20 28 1015.6 1015.6 5.4
19/09:00pm 20.4 16.3 19.2 93 0.8 E 39 48 21 26 1015.7 1015.7 5.4
19/08:30pm 20.4 16.3 19.2 93 0.8 ESE 39 50 21 27 1015.7 1015.7 5.4
19/08:00pm 20.3 16.3 19.3 94 0.6 E 39 50 21 27 1015.5 1015.5 5.4
19/07:30pm 20.2 16.6 19.4 95 0.5 E 37 48 20 26 1015.5 1015.5 5.4
19/07:00pm 20.0 16.7 19.3 96 0.4 ESE 35 43 19 23 1015.2 1015.2 5.4
19/06:30pm 20.2 16.2 19.4 95 0.5 ESE 39 52 21 28 1014.9 1014.9 5.4
19/06:00pm 20.1 16.1 19.4 96 0.4 ESE 39 50 21 27 1014.8 1014.8 5.4
19/05:30pm 20.2 16.7 19.7 97 0.3 ESE 37 46 20 25 1015.2 1015.2 5.2
19/05:00pm 20.1 17.5 19.9 99 0.1 ESE 33 41 18 22 1015.0 1015.0 5.2
19/04:30pm 20.0 17.9 19.8 99 0.1 ESE 30 37 16 20 1014.9 1014.9 5.0
19/04:00pm 20.1 18.4 19.8 98 0.2 ESE 28 35 15 19 1015.2 1015.2 4.4
19/03:30pm 20.4 18.4 19.9 97 0.3 ESE 30 35 16 19 1015.1 1015.1 3.8
19/03:00pm 20.6 18.5 19.8 95 0.5 ESE 30 37 16 20 1014.8 1014.8 3.2
19/02:30pm 20.7 19.0 19.9 95 0.5 ESE 28 35 15 19 1014.9 1014.9 3.0
19/02:00pm 20.7 19.5 20.0 96 0.4 ESE 26 32 14 17 1015.1 1015.1 3.0
19/01:30pm 20.7 18.2 19.7 94 0.6 ESE 32 37 17 20 1015.2 1015.2 2.8
19/01:00pm 20.8 18.2 19.6 93 0.8 ESE 32 39 17 21 1015.6 1015.6 2.6
19/12:30pm 20.5 17.7 19.5 94 0.6 ESE 33 41 18 22 1016.1 1016.1 2.6
19/12:00pm 20.2 17.4 19.5 96 0.4 ESE 33 43 18 23 1016.4 1016.4 2.6
19/11:30am 19.6 16.2 18.9 96 0.4 ESE 35 43 19 23 1017.1 1017.1 2.6
19/11:00am 19.3 16.0 18.3 94 0.6 E 33 41 18 22 1017.6 1017.6 2.2
19/10:30am 19.8 16.7 18.8 94 0.6 E 33 39 18 21 1017.7 1017.7 1.2
19/10:00am 19.6 16.3 18.3 92 0.8 E 33 44 18 24 1017.8 1017.8 0.6
19/09:30am 19.8 15.4 18.5 92 0.8 E 39 48 21 26 1017.6 1017.6 0.4
19/09:00am 19.5 16.3 18.5 94 0.6 E 33 41 18 22 1017.4 1017.4 14.4
19/08:30am 19.8 17.0 18.3 91 0.9 E 30 41 16 22 1017.0 1017.0 13.4
19/08:00am 19.8 19.1 18.6 93 0.7 E 20 28 11 15 1016.9 1016.9 13.4
19/07:30am 19.5 19.7 18.5 94 0.6 E 15 20 8 11 1016.6 1016.6 13.2
19/07:00am 19.2 19.5 18.0 93 0.7 E 13 19 7 10 1016.4 1016.4 12.6
19/06:30am 19.3 18.4 18.1 93 0.7 SE 20 28 11 15 1015.7 1015.7 11.8
19/06:00am 19.1 18.1 17.9 93 0.7 SE 20 28 11 15 1015.1 1015.1 9.6
19/05:54am 19.3 18.4 18.1 93 0.7 SE 20 28 11 15 1015.0 1015.0 9.0
19/05:30am 19.3 18.4 18.1 93 0.7 SE 20 28 11 15 1014.5 1014.5 5.8
19/05:28am 19.3 18.4 18.1 93 0.7 SE 20 26 11 14 1014.4 1014.4 5.4
19/05:00am 19.6 18.8 18.4 93 0.7 ESE 20 24 11 13 1014.1 1014.1 3.8
19/04:30am 19.9 20.3 18.9 94 0.6 ESE 15 20 8 11 1014.1 1014.1 3.2
19/04:00am 20.0 19.9 18.7 92 0.8 E 17 22 9 12 1014.2 1014.2 3.0
19/03:30am 20.3 18.7 18.4 89 1.2 ESE 24 32 13 17 1014.1 1014.1 3.0
19/03:00am 20.4 19.3 18.7 90 1.1 SE 22 26 12 14 1014.1 1014.1 3.0
19/02:30am 20.5 19.5 18.8 90 1.1 SE 22 26 12 14 1014.5 1014.5 3.0
19/02:00am 20.7 20.7 19.0 90 1.1 ESE 17 22 9 12 1014.8 1014.8 3.0
19/01:30am 20.8 19.9 19.1 90 1.1 ESE 22 28 12 15 1014.8 1014.8 3.0
19/01:00am 20.9 18.8 19.0 89 1.2 ESE 28 35 15 19 1014.7 1014.7 3.0
19/12:30am 20.9 18.5 19.2 90 1.1 ESE 30 37 16 20 1014.7 1014.7 2.8
19/12:00am 21.0 18.7 19.3 90 1.1 SE 30 41 16 22 1015.0 1015.0 2.8
 
Date/Time
WST
Temp
°C
App
Temp
°C
Dew
Point
Rel
Hum
%
Delta-T
°C
Wind Press
QNH
hPa
Press
MSL
hPa
Rain
since 9 am
mm
Dir
 
Spd
km/h
Gust
km/h
Spd
kts
Gust
kts
18/11:30pm 21.1 18.8 19.4 90 1.1 ESE 30 35 16 19 1015.3 1015.3 2.8
18/11:00pm 20.9 18.7 19.6 92 0.8 ESE 30 39 16 21 1015.5 1015.5 2.8
18/10:30pm 21.0 19.2 19.6 92 0.9 ESE 28 33 15 18 1015.9 1015.9 2.8
18/10:00pm 21.2 20.3 19.8 92 0.9 ESE 24 32 13 17 1016.0 1016.0 2.8
18/09:30pm 21.3 20.4 19.9 92 0.9 SE 24 30 13 16 1016.0 1016.0 2.6
18/09:00pm 21.6 20.6 19.7 89 1.2 SE 24 33 13 18 1015.9 1015.9 2.6
18/08:30pm 21.5 20.2 19.8 90 1.1 SE 26 35 14 19 1015.5 1015.5 2.6
18/08:00pm 21.7 20.8 19.8 89 1.2 SE 24 32 13 17 1015.5 1015.5 2.6
18/07:30pm 22.6 22.7 20.3 87 1.5 SE 20 26 11 14 1015.2 1015.2 2.4
18/07:00pm 23.5 25.3 21.8 90 1.1 SE 15 19 8 10 1014.8 1014.8 1.6
18/06:30pm 24.3 26.8 21.8 86 1.7 E 11 15 6 8 1014.3 1014.3 1.0
18/06:00pm 24.5 27.9 22.7 90 1.2 ENE 9 11 5 6 1013.8 1013.8 0.8
18/05:30pm 24.8 27.8 22.7 88 1.4 NE 11 13 6 7 1013.4 1013.4 0.4
18/05:00pm 25.8 27.6 21.2 76 3.0 NNE 13 17 7 9 1013.1 1013.1 0.0
18/04:30pm 27.3 28.5 20.6 67 4.4 ENE 15 19 8 10 1012.6 1012.6 0.0
18/04:00pm 28.3 27.8 18.7 56 6.2 ENE 19 20 10 11 1012.5 1012.5 0.0
18/03:30pm 28.7 27.7 17.9 52 6.9 E 20 24 11 13 1012.4 1012.4 0.0
18/03:00pm 28.2 27.8 18.9 57 6.0 ENE 19 24 10 13 1012.7 1012.7 0.0
18/02:30pm 28.6 27.7 18.1 53 6.7 E 20 26 11 14 1012.5 1012.5 0.0
18/02:00pm 28.0 25.9 18.1 55 6.3 E 26 32 14 17 1012.7 1012.7 0.0
18/01:30pm 27.8 26.2 19.3 60 5.5 E 26 30 14 16 1013.0 1013.0 0.0
18/01:00pm 27.8 26.1 18.2 56 6.1 E 24 32 13 17 1013.3 1013.3 0.0
18/12:30pm 27.9 25.7 18.6 57 6.0 E 28 35 15 19 1013.6 1013.6 0.0
18/12:00pm 27.5 25.6 18.5 58 5.7 E 26 32 14 17 1014.3 1014.3 0.0
18/11:30am 27.3 25.4 18.6 59 5.6 E 26 32 14 17 1014.5 1014.5 0.0
18/11:00am 27.3 26.3 18.9 60 5.4 E 22 30 12 16 1014.9 1014.9 0.0
18/10:30am 27.2 27.0 18.5 59 5.6 ENE 17 24 9 13 1015.5 1015.5 0.0
18/10:00am 26.3 26.7 19.9 68 4.2 E 17 20 9 11 1015.3 1015.3 0.0
18/09:30am 25.6 26.6 21.1 76 3.0 ESE 17 20 9 11 1015.3 1015.3 0.0
18/09:00am 24.8 26.3 21.3 81 2.3 SE 15 19 8 10 1015.2 1015.2 0.4
18/08:30am 24.1 26.0 22.0 88 1.4 SE 15 19 8 10 1014.8 1014.8 0.4
18/08:00am 23.7 24.5 21.4 87 1.5 SE 19 24 10 13 1014.5 1014.5 0.4
18/07:30am 23.8 25.2 21.9 89 1.3 SE 17 20 9 11 1014.3 1014.3 0.4
18/07:00am 23.2 25.3 22.4 95 0.5 SSE 15 17 8 9 1014.2 1014.2 0.4
18/06:30am 23.1 25.0 22.1 94 0.7 SSE 15 17 8 9 1013.8 1013.8 0.4
18/06:00am 23.0 25.3 22.0 94 0.7 SSE 13 15 7 8 1013.6 1013.6 0.4
18/05:30am 22.8 25.0 21.8 94 0.7 S 13 13 7 7 1013.4 1013.4 0.4
18/05:00am 23.0 25.2 21.8 93 0.8 SSE 13 15 7 8 1013.4 1013.4 0.4
18/04:30am 23.1 25.6 21.7 92 0.9 SSE 11 15 6 8 1013.2 1013.2 0.4
18/04:00am 22.8 24.4 21.4 92 0.9 SE 15 20 8 11 1012.9 1012.9 0.4
18/03:30am 23.3 23.8 20.8 86 1.6 SE 19 24 10 13 1012.9 1012.9 0.2
18/03:00am 23.3 23.9 21.0 87 1.5 SE 19 24 10 13 1013.5 1013.5 0.2
18/02:30am 23.6 25.5 21.3 87 1.5 SSE 13 17 7 9 1013.7 1013.7 0.0
18/02:00am 24.3 25.8 20.6 80 2.4 SSE 13 17 7 9 1013.9 1013.9 0.0
18/01:30am 24.5 25.9 20.4 78 2.7 SSE 13 17 7 9 1014.1 1014.1 0.0
18/01:00am 24.1 25.7 20.8 82 2.2 SE 13 15 7 8 1014.1 1014.1 0.0
18/12:30am 24.1 25.1 20.2 79 2.5 SE 15 20 8 11 1014.3 1014.3 0.0
18/12:00am 24.8 24.8 19.8 74 3.2 SE 19 24 10 13 1014.4 1014.4 0.0
 
Date/Time
WST
Temp
°C
App
Temp
°C
Dew
Point
Rel
Hum
%
Delta-T
°C
Wind Press
QNH
hPa
Press
MSL
hPa
Rain
since 9 am
mm
Dir
 
Spd
km/h
Gust
km/h
Spd
kts
Gust
kts
17/11:30pm 25.7 24.7 19.6 69 3.9 SE 24 33 13 18 1014.2 1014.2 0.0
17/11:00pm 26.4 24.6 19.5 66 4.5 SE 28 37 15 20 1014.0 1014.0 0.0
17/10:30pm 26.7 26.1 20.5 69 4.1 SE 24 32 13 17 1014.0 1014.0 0.0
17/10:00pm 26.7 26.0 20.3 68 4.2 SE 24 33 13 18 1014.2 1014.2 0.0
17/09:30pm 26.7 25.0 19.8 66 4.5 SSE 28 35 15 19 1014.3 1014.3 0.0
17/09:00pm 26.9 25.2 19.8 65 4.6 SSE 28 37 15 20 1014.6 1014.6 0.0
17/08:30pm 26.7 25.1 20.1 67 4.3 SSE 28 35 15 19 1014.5 1014.5 0.0
17/08:00pm 26.6 25.4 20.0 67 4.3 S 26 33 14 18 1014.6 1014.6 0.0
17/07:30pm 26.6 24.4 20.4 69 4.1 SSE 32 39 17 21 1014.1 1014.1 0.0
17/07:00pm 26.5 25.5 21.3 73 3.4 S 28 39 15 21 1014.1 1014.1 0.0
17/06:45pm 27.1 27.1 20.9 69 4.1 S 22 37 12 20 1013.9 1013.9 0.0
17/06:30pm 30.2 30.6 17.3 46 8.2 S 11 13 6 7 1013.5 1013.5 0.0
17/06:00pm 30.5 30.9 17.2 44 8.4 SE 11 13 6 7 1013.0 1013.0 0.0
17/05:30pm 30.6 30.5 17.0 44 8.6 ESE 13 15 7 8 1012.7 1012.7 0.0
17/05:00pm 30.8 30.9 17.5 45 8.5 SE 13 19 7 10 1012.3 1012.3 0.0
17/04:30pm 30.8 30.9 17.5 45 8.5 ESE 13 19 7 10 1012.0 1012.0 0.0
17/04:00pm 30.9 30.7 17.6 45 8.5 SE 15 20 8 11 1012.0 1012.0 0.0
17/03:30pm 30.8 30.7 17.8 45 8.3 SE 15 20 8 11 1012.0 1012.0 0.0
17/03:00pm 30.8 30.6 17.5 45 8.5 SE 15 20 8 11 1012.1 1012.1 0.0
17/02:30pm 31.3 30.8 17.9 44 8.6 ESE 17 24 9 13 1012.2 1012.2 0.0
17/02:00pm 31.1 30.2 17.8 45 8.5 ESE 19 24 10 13 1012.2 1012.2 0.0
17/01:30pm 30.5 29.5 17.9 47 8.1 ESE 20 24 11 13 1012.5 1012.5 0.0
17/01:00pm 30.5 29.2 18.2 47 7.9 E 22 26 12 14 1012.8 1012.8 0.0
17/12:30pm 29.6 28.5 18.7 52 7.0 E 22 28 12 15 1013.1 1013.1 0.0
17/12:00pm 29.9 28.2 18.0 48 7.6 E 24 30 13 16 1013.4 1013.4 0.0
17/11:30am 29.2 26.8 18.3 51 7.0 ESE 28 32 15 17 1013.9 1013.9 0.0
17/11:00am 28.6 26.4 18.7 55 6.4 ESE 28 33 15 18 1014.4 1014.4 0.0
17/10:30am 28.4 26.4 19.1 57 6.0 ESE 28 33 15 18 1015.0 1015.0 0.0
17/10:00am 28.0 26.3 19.0 58 5.8 E 26 32 14 17 1015.4 1015.4 0.0
17/09:30am 27.7 25.5 18.7 58 5.8 E 28 32 15 17 1015.3 1015.3 0.0
17/09:00am 28.2 27.7 19.1 57 5.9 E 20 24 11 13 1015.5 1015.5 0.0
17/08:30am 28.3 27.8 19.0 57 6.0 E 20 26 11 14 1015.5 1015.5 0.0
17/08:00am 28.0 28.1 20.0 61 5.2 E 19 24 10 13 1015.4 1015.4 0.0
17/07:30am 27.7 29.2 19.0 59 5.6 E 9 13 5 7 1014.8 1014.8 0.0
17/07:00am 27.2 30.6 19.3 62 5.1 CALM 0 0 0 0 1014.4 1014.4 0.0

Other Formats:

Comma delimited format used in spreadsheet applications
http://www.bom.gov.au/fwo/IDW60801/IDW60801.95307.axf

JavaScript Object Notation format (JSON) in row-major order
http://www.bom.gov.au/fwo/IDW60801/IDW60801.95307.json